createdAt,value
2023-03-05T00:03:16.355Z,30.27
2023-03-05T00:07:16.196Z,28.76
2023-03-05T00:11:16.183Z,29.66
2023-03-05T00:15:16.149Z,32.54
2023-03-05T00:19:16.127Z,26.71
2023-03-05T00:23:16.032Z,29.69
2023-03-05T00:27:16.116Z,29.22
2023-03-05T00:31:16.331Z,30.93
2023-03-05T00:35:16.327Z,28.23
2023-03-05T00:39:16.454Z,30.17
2023-03-05T00:43:16.544Z,31.37
2023-03-05T00:47:16.673Z,28.99
2023-03-05T00:51:16.744Z,28.78
2023-03-05T00:55:16.785Z,30.23
2023-03-05T00:59:16.870Z,29.76
2023-03-05T01:03:16.978Z,32.47
2023-03-05T01:07:17.066Z,30.00
2023-03-05T01:11:17.200Z,31.57
2023-03-05T01:15:17.303Z,30.74
2023-03-05T01:19:18.546Z,27.56
2023-03-05T01:23:17.475Z,31.01
2023-03-05T01:27:17.586Z,31.81
2023-03-05T01:31:17.734Z,28.73
2023-03-05T01:35:17.784Z,30.88
2023-03-05T01:39:17.835Z,30.16
2023-03-05T01:43:17.786Z,28.67
2023-03-05T01:47:17.771Z,32.57
2023-03-05T01:51:17.798Z,30.49
2023-03-05T01:55:17.766Z,27.49
2023-03-05T01:59:17.700Z,31.10
2023-03-05T02:03:17.701Z,29.45
2023-03-05T02:07:17.707Z,31.37
2023-03-05T02:11:17.770Z,30.45
2023-03-05T02:15:17.713Z,33.15
2023-03-05T02:19:17.724Z,30.98
2023-03-05T02:23:17.713Z,29.29
2023-03-05T02:27:17.691Z,27.71
2023-03-05T02:31:17.763Z,28.83
2023-03-05T02:35:17.784Z,30.00
2023-03-05T02:39:17.765Z,29.34
2023-03-05T02:43:17.698Z,28.76
2023-03-05T02:47:17.677Z,32.16
2023-03-05T02:51:17.660Z,30.54
2023-03-05T02:55:17.729Z,28.13
2023-03-05T02:59:17.722Z,30.07
2023-03-05T03:03:17.769Z,28.27
2023-03-05T03:07:17.707Z,27.23
2023-03-05T03:11:17.671Z,27.47
2023-03-05T03:15:17.661Z,26.75
2023-03-05T03:19:17.694Z,29.48
2023-03-05T03:23:17.778Z,29.86
2023-03-05T03:27:17.740Z,29.82
2023-03-05T03:31:17.843Z,30.06
2023-03-05T03:35:17.793Z,30.39
2023-03-05T03:39:17.792Z,28.34
2023-03-05T03:43:17.722Z,29.03
2023-03-05T03:47:17.750Z,26.27
2023-03-05T03:51:17.747Z,28.10
2023-03-05T03:55:17.733Z,29.67
2023-03-05T03:59:17.754Z,28.42
2023-03-05T04:03:17.777Z,29.22
2023-03-05T04:07:17.768Z,27.15
2023-03-05T04:11:17.746Z,30.90
2023-03-05T04:15:17.776Z,29.76
2023-03-05T04:19:17.763Z,27.28
2023-03-05T04:23:17.772Z,27.13
2023-03-05T04:27:17.744Z,28.92
2023-03-05T04:31:17.842Z,26.91
2023-03-05T04:35:17.815Z,30.00
2023-03-05T04:39:17.772Z,27.73
2023-03-05T04:43:17.752Z,30.21
2023-03-05T04:47:17.739Z,27.69
2023-03-05T04:51:17.773Z,29.26
2023-03-05T04:55:17.752Z,31.90
2023-03-05T04:59:17.816Z,28.76
2023-03-05T05:03:17.863Z,26.52
2023-03-05T05:07:17.849Z,29.66
2023-03-05T05:11:17.850Z,27.53
2023-03-05T05:15:17.873Z,28.48
2023-03-05T05:19:17.870Z,27.75
2023-03-05T05:23:17.895Z,26.39
2023-03-05T05:27:17.898Z,27.40
2023-03-05T05:31:18.015Z,27.35
2023-03-05T05:35:18.016Z,29.62
2023-03-05T05:39:20.175Z,28.78
2023-03-05T05:43:18.061Z,30.50
2023-03-05T05:47:18.101Z,29.31
2023-03-05T05:51:18.113Z,28.66
2023-03-05T05:55:18.132Z,28.14
2023-03-05T05:59:18.157Z,29.50
2023-03-05T06:03:18.222Z,29.94
2023-03-05T06:07:18.219Z,26.86
2023-03-05T06:11:19.434Z,29.00
2023-03-05T06:15:18.267Z,27.80
2023-03-05T06:19:18.286Z,29.60
2023-03-05T06:23:18.322Z,27.92
2023-03-05T06:27:18.381Z,29.47
2023-03-05T06:31:18.388Z,30.04
2023-03-05T06:35:18.453Z,28.56
2023-03-05T06:39:18.512Z,30.46
2023-03-05T06:43:18.496Z,28.73
2023-03-05T06:47:18.544Z,26.47
2023-03-05T06:51:18.619Z,29.21
2023-03-05T06:55:18.594Z,29.26
2023-03-05T06:59:18.684Z,30.82
2023-03-05T07:03:18.698Z,27.86
2023-03-05T07:07:18.781Z,30.19
2023-03-05T07:11:18.823Z,28.50
2023-03-05T07:15:18.861Z,28.85
2023-03-05T07:19:18.977Z,27.45
2023-03-05T07:23:18.889Z,27.14
2023-03-05T07:27:18.937Z,30.77
2023-03-05T07:31:19.085Z,27.94
2023-03-05T07:35:19.037Z,31.87
2023-03-05T07:39:19.073Z,28.55
2023-03-05T07:43:19.119Z,29.65
2023-03-05T07:47:19.157Z,32.64
2023-03-05T07:51:19.230Z,32.36
2023-03-05T07:55:19.266Z,29.27
2023-03-05T07:59:19.301Z,28.86
2023-03-05T08:03:19.275Z,28.77
2023-03-05T08:07:19.352Z,28.44
2023-03-05T08:11:19.400Z,28.80
2023-03-05T08:15:19.407Z,27.60
2023-03-05T08:19:19.424Z,28.67
2023-03-05T08:23:19.455Z,30.37
2023-03-05T08:27:19.479Z,29.49
2023-03-05T08:31:19.565Z,29.00
2023-03-05T08:35:19.559Z,27.17
2023-03-05T08:39:19.599Z,26.54
2023-03-05T08:43:19.532Z,29.06
2023-03-05T08:47:19.595Z,28.85
2023-03-05T08:51:19.552Z,28.86
2023-03-05T08:55:19.569Z,27.61
2023-03-05T08:59:19.545Z,30.00
2023-03-05T09:03:19.546Z,28.22
2023-03-05T09:07:19.561Z,29.48
2023-03-05T09:11:19.518Z,28.79
2023-03-05T09:15:19.495Z,26.82
2023-03-05T09:19:19.487Z,28.76
2023-03-05T09:23:19.505Z,28.30
2023-03-05T09:27:19.621Z,28.96
2023-03-05T09:31:19.841Z,27.70
2023-03-05T09:35:19.987Z,29.03
2023-03-05T09:39:19.974Z,29.93
2023-03-05T09:43:20.089Z,28.46
2023-03-05T09:47:20.119Z,27.41
2023-03-05T09:51:20.198Z,29.41
2023-03-05T09:55:20.218Z,28.43
2023-03-05T09:59:20.323Z,28.32
2023-03-05T10:03:20.471Z,29.59
2023-03-05T10:07:20.599Z,30.17
2023-03-05T10:11:20.747Z,29.67
2023-03-05T10:15:20.879Z,30.27
2023-03-05T10:19:21.185Z,30.12
2023-03-05T10:23:21.863Z,28.53
2023-03-05T10:27:21.148Z,30.74
2023-03-05T10:31:21.045Z,28.63
2023-03-05T10:35:20.968Z,30.11
2023-03-05T10:39:20.925Z,28.55
2023-03-05T10:43:20.922Z,26.62
2023-03-05T10:47:20.863Z,28.55
2023-03-05T10:51:21.036Z,27.39
2023-03-05T10:55:21.232Z,29.13
2023-03-05T10:59:21.386Z,29.99
2023-03-05T11:03:21.584Z,26.63
2023-03-05T11:07:21.780Z,29.20
2023-03-05T11:11:22.017Z,28.92
2023-03-05T11:15:22.139Z,28.23
2023-03-05T11:19:22.316Z,27.89
2023-03-05T11:23:22.508Z,29.64
2023-03-05T11:27:22.707Z,27.46
2023-03-05T11:31:22.859Z,26.93
2023-03-05T11:35:23.036Z,28.18
2023-03-05T11:39:23.164Z,28.19
2023-03-05T11:43:23.307Z,28.92
2023-03-05T11:47:23.465Z,26.44
2023-03-05T11:51:23.769Z,28.97
2023-03-05T11:55:23.751Z,26.31
2023-03-05T11:59:23.876Z,25.41
2023-03-05T12:03:24.034Z,27.73
2023-03-05T12:07:24.110Z,28.86
2023-03-05T12:11:24.270Z,27.87
2023-03-05T12:15:24.449Z,27.55
2023-03-05T12:19:24.588Z,27.12
2023-03-05T12:23:24.702Z,26.42
2023-03-05T12:27:24.834Z,27.87
2023-03-05T12:31:25.000Z,26.19
2023-03-05T12:35:25.168Z,27.89
2023-03-05T12:39:25.181Z,30.31
2023-03-05T12:43:25.282Z,29.98
2023-03-05T12:47:25.380Z,31.82
2023-03-05T12:51:25.513Z,28.25
2023-03-05T12:55:25.572Z,29.57
2023-03-05T12:59:25.749Z,28.62
2023-03-05T13:03:25.891Z,27.11
2023-03-05T13:07:25.928Z,27.83
2023-03-05T13:11:25.962Z,28.92
2023-03-05T13:15:26.034Z,28.68
2023-03-05T13:19:26.163Z,28.34
2023-03-05T13:23:26.239Z,30.18
2023-03-05T13:27:26.316Z,28.56
2023-03-05T13:31:26.407Z,28.63
2023-03-05T13:35:26.450Z,28.73
2023-03-05T13:39:26.532Z,28.06
2023-03-05T13:43:26.523Z,28.53
2023-03-05T13:47:26.631Z,32.03
2023-03-05T13:51:26.681Z,27.86
2023-03-05T13:55:26.721Z,28.24
2023-03-05T13:59:26.763Z,28.18
2023-03-05T14:03:26.829Z,27.76
2023-03-05T14:07:26.869Z,28.09
2023-03-05T14:11:26.933Z,26.30
2023-03-05T14:15:26.942Z,29.33
2023-03-05T14:19:26.989Z,29.08
2023-03-05T14:23:27.294Z,25.66
2023-03-05T14:27:27.038Z,28.64
2023-03-05T14:31:27.119Z,28.90
2023-03-05T14:35:27.180Z,30.92
2023-03-05T14:39:27.227Z,28.39
2023-03-05T14:43:27.202Z,26.31
2023-03-05T14:47:27.290Z,27.29
2023-03-05T14:51:27.312Z,27.12
2023-03-05T14:55:27.367Z,27.41
2023-03-05T14:59:27.364Z,26.08
2023-03-05T15:03:27.435Z,29.08
2023-03-05T15:07:27.486Z,26.80
2023-03-05T15:11:27.521Z,27.35
2023-03-05T15:15:27.529Z,27.07
2023-03-05T15:19:27.530Z,29.20
2023-03-05T15:23:27.566Z,28.92
2023-03-05T15:27:27.613Z,27.13
2023-03-05T15:31:27.602Z,29.78
2023-03-05T15:35:27.689Z,26.51
2023-03-05T15:39:27.720Z,26.36
2023-03-05T15:43:27.664Z,27.23
2023-03-05T15:47:27.768Z,28.16
2023-03-05T15:51:27.708Z,28.93
2023-03-05T15:55:27.738Z,28.85
2023-03-05T15:59:27.907Z,26.79
2023-03-05T16:03:27.905Z,27.44
2023-03-05T16:07:27.895Z,28.80
2023-03-05T16:11:27.942Z,30.33
2023-03-05T16:15:27.989Z,30.82
2023-03-05T16:19:28.003Z,26.97
2023-03-05T16:23:28.047Z,29.78
2023-03-05T16:27:28.070Z,26.48
2023-03-05T16:31:28.121Z,27.01
2023-03-05T16:35:28.175Z,27.85
2023-03-05T16:39:28.165Z,28.08
2023-03-05T16:43:28.183Z,27.83
2023-03-05T16:47:28.277Z,29.16
2023-03-05T16:51:28.267Z,31.02
2023-03-05T16:55:28.301Z,29.39
2023-03-05T16:59:28.327Z,29.74
2023-03-05T17:03:28.562Z,30.14
2023-03-05T17:07:28.426Z,31.25
2023-03-05T17:11:28.454Z,28.95
2023-03-05T17:15:28.508Z,28.28
2023-03-05T17:19:28.546Z,30.87
2023-03-05T17:23:28.589Z,28.53
2023-03-05T17:27:28.690Z,28.21
2023-03-05T17:31:28.744Z,27.94
2023-03-05T17:35:28.836Z,29.36
2023-03-05T17:39:28.871Z,31.24
2023-03-05T17:43:28.946Z,29.17
2023-03-05T17:47:29.005Z,29.71
2023-03-05T17:51:29.097Z,27.71
2023-03-05T17:55:29.189Z,30.81
2023-03-05T17:59:29.270Z,30.01
2023-03-05T18:03:29.382Z,30.35
2023-03-05T18:07:29.492Z,30.67
2023-03-05T18:11:29.606Z,28.13
2023-03-05T18:15:29.755Z,28.55
2023-03-05T18:19:29.842Z,29.05
2023-03-05T18:23:29.959Z,30.48
2023-03-05T18:27:30.093Z,30.43
2023-03-05T18:31:30.255Z,29.76
2023-03-05T18:35:30.373Z,28.60
2023-03-05T18:39:30.474Z,28.67
2023-03-05T18:43:30.611Z,30.57
2023-03-05T18:47:30.748Z,30.17
2023-03-05T18:51:30.848Z,31.04
2023-03-05T18:55:31.047Z,30.76
2023-03-05T18:59:31.122Z,30.97
2023-03-05T19:03:31.266Z,29.09
2023-03-05T19:07:31.443Z,29.67
2023-03-05T19:11:31.619Z,30.28
2023-03-05T19:15:31.804Z,28.50
2023-03-05T19:19:31.882Z,31.12
2023-03-05T19:23:32.042Z,30.94
2023-03-05T19:27:32.225Z,30.81
2023-03-05T19:31:32.367Z,31.73
2023-03-05T19:35:32.649Z,30.18
2023-03-05T19:39:32.679Z,30.52
2023-03-05T19:43:32.820Z,31.10
2023-03-05T19:47:32.958Z,30.87
2023-03-05T19:51:33.100Z,32.58
2023-03-05T19:55:33.283Z,32.86
2023-03-05T19:59:33.484Z,34.77
2023-03-05T20:03:33.622Z,33.95
2023-03-05T20:07:33.810Z,31.52
2023-03-05T20:11:33.960Z,31.12
2023-03-05T20:15:34.118Z,35.02
2023-03-05T20:19:34.305Z,34.12
2023-03-05T20:23:34.536Z,31.34
2023-03-05T20:27:34.737Z,29.50
2023-03-05T20:31:34.981Z,31.94
2023-03-05T20:35:35.132Z,33.68
2023-03-05T20:39:35.320Z,34.53
2023-03-05T20:43:35.559Z,31.96
2023-03-05T20:47:35.716Z,31.69
2023-03-05T20:51:35.964Z,33.91
2023-03-05T20:55:36.146Z,32.18
2023-03-05T20:59:36.388Z,31.74
2023-03-05T21:03:36.367Z,33.66
2023-03-05T21:07:36.344Z,35.05
2023-03-05T21:11:36.255Z,33.54
2023-03-05T21:15:36.250Z,31.90
2023-03-05T21:19:36.242Z,31.21
2023-03-05T21:23:36.188Z,35.83
2023-03-05T21:27:36.125Z,33.34
2023-03-05T21:31:36.049Z,33.70
2023-03-05T21:35:36.070Z,33.80
2023-03-05T21:39:36.069Z,35.52
2023-03-05T21:43:36.091Z,34.91
2023-03-05T21:47:35.947Z,36.36
2023-03-05T21:51:35.963Z,31.45
2023-03-05T21:55:35.895Z,36.05
2023-03-05T21:59:35.870Z,35.39
2023-03-05T22:03:35.821Z,34.67
2023-03-05T22:07:35.819Z,36.02
2023-03-05T22:11:35.741Z,35.53
2023-03-05T22:15:35.721Z,34.19
2023-03-05T22:19:35.858Z,36.52
2023-03-05T22:23:35.774Z,32.10
2023-03-05T22:27:35.746Z,35.39
2023-03-05T22:31:35.686Z,35.99
2023-03-05T22:35:35.666Z,36.77
2023-03-05T22:39:35.630Z,33.50
2023-03-05T22:43:35.585Z,37.82
2023-03-05T22:47:35.527Z,35.05
2023-03-05T22:51:35.523Z,34.08
2023-03-05T22:55:35.430Z,33.74
2023-03-05T22:59:35.699Z,32.15
2023-03-05T23:03:35.440Z,30.97
2023-03-05T23:07:35.345Z,34.65
2023-03-05T23:11:35.357Z,32.82
2023-03-05T23:15:35.349Z,34.26
2023-03-05T23:19:35.241Z,35.72
2023-03-05T23:23:35.254Z,33.70
2023-03-05T23:27:35.314Z,34.89
2023-03-05T23:31:35.769Z,34.43
2023-03-05T23:35:35.414Z,36.51
2023-03-05T23:39:35.364Z,28.92
2023-03-05T23:43:35.379Z,34.86
2023-03-05T23:47:35.346Z,34.25
2023-03-05T23:51:35.401Z,33.56
2023-03-05T23:55:35.386Z,32.53
2023-03-05T23:59:35.374Z,33.10
